Time;durP1;ratioP1;P1;durP2;ratioP2;P2;SDS_P1;SDS_P2;PMS_P1;PMS_P2;Temp;Humidity;BMP_temperature;BMP_pressure;BME280_temperature;BME280_humidity;BME280_pressure;Samples;Min_cycle;Max_cycle;Signal;HPM_P1;HPM_P2
2022/05/23 00:02:18;;;;;;;1.48;0.38;;;14.70;99.90;;;;;;5008615;28;20401;-56
2022/05/23 00:04:47;;;;;;;1.70;0.40;;;14.70;99.90;;;;;;5008639;28;20061;-56
2022/05/23 00:07:36;;;;;;;1.23;0.50;;;14.70;99.90;;;;;;5009704;28;20413;-56
2022/05/23 00:10:06;;;;;;;0.52;0.50;;;14.70;99.90;;;;;;5008448;28;20050;-56
2022/05/23 00:12:36;;;;;;;0.30;0.30;;;14.60;99.90;;;;;;4996361;28;20054;-56
2022/05/23 00:15:06;;;;;;;0.57;0.52;;;14.60;99.90;;;;;;5003407;28;20042;-57
2022/05/23 00:17:35;;;;;;;0.22;0.20;;;14.60;99.90;;;;;;5009926;28;20045;-55
2022/05/23 00:20:06;;;;;;;0.40;0.35;;;14.60;99.90;;;;;;5009640;28;20390;-56
2022/05/23 00:22:33;;;;;;;1.27;0.30;;;14.50;99.90;;;;;;5009725;28;20049;-57
2022/05/23 00:25:01;;;;;;;0.50;0.30;;;14.50;99.90;;;;;;5008497;28;20129;-56
2022/05/23 00:27:29;;;;;;;0.30;0.30;;;14.50;99.90;;;;;;4998343;28;20054;-56
2022/05/23 00:30:00;;;;;;;1.08;0.40;;;14.50;99.90;;;;;;5008550;28;20513;-56
2022/05/23 00:35:20;;;;;;;0.52;0.32;;;14.50;99.90;;;;;;5008171;28;20069;-56
2022/05/23 00:37:54;;;;;;;0.30;0.25;;;14.50;99.90;;;;;;5009552;28;20355;-56
2022/05/23 00:40:30;;;;;;;0.20;0.20;;;14.40;99.90;;;;;;5009603;28;20065;-56
2022/05/23 00:43:16;;;;;;;0.35;0.30;;;14.50;99.90;;;;;;4993059;28;20050;-56
2022/05/23 00:45:45;;;;;;;2.40;0.40;;;14.50;99.90;;;;;;5010065;28;20061;-56
2022/05/23 00:48:15;;;;;;;1.25;0.50;;;14.50;99.90;;;;;;5012836;28;20057;-56
2022/05/23 00:50:52;;;;;;;0.68;0.52;;;14.40;99.90;;;;;;5011842;28;20053;-56
2022/05/23 00:53:30;;;;;;;0.40;0.40;;;14.50;99.90;;;;;;5013082;28;20374;-56
2022/05/23 00:55:58;;;;;;;0.80;0.60;;;14.40;99.90;;;;;;5012011;28;20050;-56
2022/05/23 00:58:33;;;;;;;0.88;0.38;;;14.50;99.90;;;;;;5003747;28;20437;-56
2022/05/23 01:01:05;;;;;;;1.85;0.95;;;14.40;99.90;;;;;;5011787;28;20054;-56
2022/05/23 01:03:35;;;;;;;1.55;0.30;;;14.40;99.90;;;;;;5008228;28;20042;-56
2022/05/23 01:06:05;;;;;;;1.17;0.40;;;14.40;99.90;;;;;;5009775;28;20054;-55
2022/05/23 01:08:35;;;;;;;1.42;0.35;;;14.40;99.90;;;;;;5011108;28;20065;-55
2022/05/23 01:11:04;;;;;;;1.75;0.70;;;14.30;99.90;;;;;;5011430;28;20053;-56
2022/05/23 01:13:31;;;;;;;0.38;0.38;;;14.30;99.90;;;;;;4995022;28;20498;-55
2022/05/23 01:15:59;;;;;;;2.78;0.50;;;14.30;99.90;;;;;;5011485;28;20042;-56
2022/05/23 01:18:31;;;;;;;1.20;0.52;;;14.30;99.90;;;;;;4994833;28;20054;-56
2022/05/23 01:21:03;;;;;;;2.97;1.13;;;14.30;99.90;;;;;;5011405;28;20046;-56
2022/05/23 01:24:04;;;;;;;4.90;0.50;;;14.20;99.90;;;;;;5011119;28;20061;-55
2022/05/23 01:26:38;;;;;;;1.38;0.82;;;14.20;99.90;;;;;;5009559;28;20505;-56
2022/05/23 01:29:12;;;;;;;;;;;14.20;99.90;;;;;;5006504;28;20034;-55
2022/05/23 01:31:47;;;;;;;2.60;0.80;;;14.20;99.90;;;;;;5001376;28;20420;-56
2022/05/23 01:34:26;;;;;;;2.35;1.08;;;14.20;99.90;;;;;;4978392;28;20050;-56
2022/05/23 01:37:00;;;;;;;0.80;0.65;;;14.20;99.90;;;;;;4993064;28;20046;-56
2022/05/23 01:39:34;;;;;;;1.35;0.70;;;14.20;99.90;;;;;;5010776;28;20046;-56
2022/05/23 01:42:02;;;;;;;2.83;0.88;;;14.20;99.90;;;;;;5010262;28;20049;-56
2022/05/23 01:44:32;;;;;;;1.60;0.50;;;14.20;99.90;;;;;;4993021;28;20521;-56
2022/05/23 01:47:15;;;;;;;0.85;0.40;;;14.20;99.90;;;;;;5040859;28;20497;-57
2022/05/23 01:50:00;;;;;;;4.78;0.70;;;14.20;99.90;;;;;;5012611;28;20045;-56
2022/05/23 01:52:54;;;;;;;1.50;0.60;;;14.20;99.90;;;;;;5010482;28;20050;-56
2022/05/23 01:55:32;;;;;;;2.22;0.63;;;14.20;99.90;;;;;;4996023;28;20049;-56
2022/05/23 01:58:07;;;;;;;2.05;0.75;;;14.10;99.90;;;;;;5010614;28;20045;-56
2022/05/23 02:03:27;;;;;;;1.42;0.70;;;14.00;99.90;;;;;;5012290;28;20038;-57
2022/05/23 02:05:58;;;;;;;2.17;0.70;;;13.90;99.90;;;;;;4995675;28;20064;-56
2022/05/23 02:08:26;;;;;;;6.10;0.80;;;13.80;99.90;;;;;;5013432;28;20394;-57
2022/05/23 02:10:54;;;;;;;2.22;0.90;;;13.80;99.90;;;;;;5011905;28;20113;-57
2022/05/23 02:13:32;;;;;;;3.20;0.88;;;13.70;99.90;;;;;;5011959;28;20049;-56
2022/05/23 02:16:01;;;;;;;5.00;1.27;;;13.60;99.90;;;;;;5012129;28;20050;-56
2022/05/23 02:18:38;;;;;;;3.20;0.77;;;13.50;99.90;;;;;;5013140;28;20045;-56
2022/05/23 02:21:07;;;;;;;4.97;1.17;;;13.50;99.90;;;;;;5012105;28;20046;-57
2022/05/23 02:23:36;;;;;;;5.68;0.85;;;13.30;99.90;;;;;;5011918;28;20046;-56
2022/05/23 02:26:04;;;;;;;2.67;0.70;;;13.30;99.90;;;;;;5013070;28;20050;-57
2022/05/23 02:28:47;;;;;;;2.83;1.13;;;13.30;99.90;;;;;;5013030;28;20061;-57
2022/05/23 02:31:34;;;;;;;3.50;0.90;;;13.20;99.90;;;;;;5011712;28;20509;-56
2022/05/23 02:34:10;;;;;;;3.03;0.88;;;13.10;99.90;;;;;;5011637;28;20057;-56
2022/05/23 02:36:43;;;;;;;3.08;0.80;;;13.10;99.90;;;;;;5011738;28;20045;-56
2022/05/23 02:39:14;;;;;;;7.38;1.10;;;13.00;99.90;;;;;;5011728;28;20386;-56
2022/05/23 02:41:44;;;;;;;6.57;0.90;;;13.00;99.90;;;;;;5011502;28;20485;-57
2022/05/23 02:44:16;;;;;;;7.28;0.98;;;12.90;99.90;;;;;;5011583;28;20037;-56
2022/05/23 02:46:44;;;;;;;1.73;0.47;;;12.90;99.90;;;;;;4994903;28;20057;-56
2022/05/23 02:49:16;;;;;;;3.45;0.80;;;12.90;99.90;;;;;;4995820;28;20046;-56
2022/05/23 02:51:46;;;;;;;4.88;0.95;;;12.80;99.90;;;;;;5011541;28;20402;-56
2022/05/23 02:54:15;;;;;;;3.55;1.35;;;12.80;99.90;;;;;;5011492;28;20041;-56
2022/05/23 02:56:49;;;;;;;3.28;1.00;;;12.80;99.90;;;;;;5011423;28;20391;-56
2022/05/23 02:59:22;;;;;;;3.95;0.82;;;12.70;99.90;;;;;;5011123;28;20065;-56
2022/05/23 03:04:45;;;;;;;2.15;0.88;;;12.60;99.90;;;;;;4994854;28;20053;-56
2022/05/23 03:07:16;;;;;;;6.22;2.17;;;12.60;99.90;;;;;;5012343;28;20052;-56
2022/05/23 03:09:54;;;;;;;2.88;0.95;;;12.50;99.90;;;;;;5010759;28;20058;-56
2022/05/23 03:12:22;;;;;;;8.45;1.80;;;12.50;99.90;;;;;;5012152;28;20486;-56
2022/05/23 03:14:49;;;;;;;5.63;1.13;;;12.50;99.90;;;;;;5011168;28;20513;-56
2022/05/23 03:17:17;;;;;;;3.13;1.00;;;12.50;99.90;;;;;;5012063;28;20057;-56
2022/05/23 03:19:47;;;;;;;4.25;0.73;;;12.50;99.90;;;;;;5011026;28;20057;-56
2022/05/23 03:27:52;;;;;;;4.95;0.80;;;12.30;99.90;;;;;;5010830;28;20056;-57
2022/05/23 03:30:27;;;;;;;4.72;0.80;;;12.30;99.90;;;;;;5010995;28;20045;-56
2022/05/23 03:32:57;;;;;;;3.35;0.95;;;12.30;99.90;;;;;;5010806;28;20049;-55
2022/05/23 03:35:27;;;;;;;5.72;0.63;;;12.30;99.90;;;;;;5010968;28;20121;-56
2022/05/23 03:37:55;;;;;;;3.20;0.70;;;12.20;99.90;;;;;;5010682;28;20041;-55
2022/05/23 03:40:24;;;;;;;3.17;0.75;;;12.20;99.90;;;;;;5010649;28;20037;-56
2022/05/23 03:42:57;;;;;;;5.25;0.90;;;12.20;99.90;;;;;;5010621;28;20397;-56
2022/05/23 03:45:27;;;;;;;5.88;1.30;;;12.20;99.90;;;;;;5010659;28;20042;-55
2022/05/23 03:47:55;;;;;;;5.35;1.13;;;12.20;99.90;;;;;;5010592;28;20058;-56
2022/05/23 03:50:26;;;;;;;5.80;1.00;;;12.10;99.90;;;;;;5010503;28;20042;-55
2022/05/23 03:52:57;;;;;;;4.55;0.82;;;12.10;99.90;;;;;;5010408;28;20041;-55
2022/05/23 03:55:29;;;;;;;4.38;1.00;;;12.10;99.90;;;;;;5010629;28;20061;-55
2022/05/23 03:58:13;;;;;;;7.50;0.93;;;12.10;99.90;;;;;;5010646;28;20057;-55
2022/05/23 04:00:43;;;;;;;2.45;0.65;;;12.00;99.90;;;;;;5010573;28;20405;-55
2022/05/23 04:03:12;;;;;;;6.72;1.08;;;12.00;99.90;;;;;;5010385;28;20049;-56
2022/05/23 04:05:41;;;;;;;6.32;1.58;;;12.00;99.90;;;;;;4994123;28;20405;-56
2022/05/23 04:08:20;;;;;;;11.82;2.88;;;12.00;99.90;;;;;;5010536;28;20042;-56
2022/05/23 04:10:52;;;;;;;8.55;1.20;;;12.00;99.90;;;;;;4994591;28;20053;-55
2022/05/23 04:13:22;;;;;;;8.50;0.88;;;12.00;99.90;;;;;;5043433;28;20489;-55
2022/05/23 04:15:50;;;;;;;6.35;1.00;;;11.90;99.90;;;;;;5011566;28;20042;-56
2022/05/23 04:18:18;;;;;;;11.70;1.33;;;11.90;99.90;;;;;;5011439;28;20053;-56
2022/05/23 04:20:49;;;;;;;2.58;0.70;;;11.90;99.90;;;;;;5012382;28;20054;-56
2022/05/23 04:23:19;;;;;;;4.40;0.90;;;11.90;99.90;;;;;;4998406;28;20053;-56
2022/05/23 04:25:48;;;;;;;9.30;1.92;;;11.80;99.90;;;;;;5014058;28;20053;-56
2022/05/23 04:28:20;;;;;;;7.80;1.60;;;11.80;99.90;;;;;;5013827;28;20049;-56
2022/05/23 04:30:48;;;;;;;4.95;1.10;;;11.80;99.90;;;;;;4997712;28;20046;-56
2022/05/23 04:36:07;;;;;;;6.18;1.10;;;11.80;99.90;;;;;;4997588;28;20569;-56
2022/05/23 04:38:42;;;;;;;4.13;0.75;;;11.80;99.90;;;;;;5013908;28;20046;-56
2022/05/23 04:41:09;;;;;;;2.42;0.88;;;11.80;99.90;;;;;;5014956;28;20046;-56
2022/05/23 04:43:52;;;;;;;4.55;0.88;;;11.80;99.90;;;;;;4999712;28;20046;-56
2022/05/23 04:46:24;;;;;;;5.10;1.13;;;11.80;99.90;;;;;;5013924;28;20050;-56
2022/05/23 04:52:05;;;;;;;4.70;1.42;;;11.80;99.90;;;;;;4990624;28;20118;-56
2022/05/23 04:54:40;;;;;;;6.18;1.13;;;11.80;99.90;;;;;;4990778;28;20050;-56
2022/05/23 04:57:10;;;;;;;3.80;0.90;;;11.80;99.90;;;;;;4991955;28;20046;-56
2022/05/23 04:59:38;;;;;;;7.30;1.13;;;11.80;99.90;;;;;;5010022;28;20516;-56
2022/05/23 05:02:16;;;;;;;5.60;1.08;;;11.90;99.90;;;;;;5003961;28;20637;-57
2022/05/23 05:04:46;;;;;;;5.30;1.67;;;11.90;99.90;;;;;;5021713;28;20410;-56
2022/05/23 05:07:14;;;;;;;8.05;1.25;;;11.90;99.90;;;;;;4990832;28;20042;-56
2022/05/23 05:09:42;;;;;;;8.20;1.27;;;12.00;99.90;;;;;;5011217;28;20054;-56
2022/05/23 05:12:12;;;;;;;7.72;1.67;;;12.00;99.90;;;;;;5008062;28;20045;-56
2022/05/23 05:14:42;;;;;;;4.18;1.10;;;12.00;99.90;;;;;;5008361;28;20041;-56
2022/05/23 05:17:11;;;;;;;10.88;1.33;;;12.10;99.90;;;;;;5010283;28;20050;-56
2022/05/23 05:19:40;;;;;;;3.70;1.40;;;12.20;99.90;;;;;;4976251;28;20064;-56
2022/05/23 05:22:46;;;;;;;5.38;1.00;;;12.20;99.90;;;;;;4932252;29;20066;-55
2022/05/23 05:25:43;;;;;;;6.53;1.08;;;12.20;99.90;;;;;;4944353;29;20059;-55
2022/05/23 05:28:22;;;;;;;3.35;1.23;;;12.30;99.90;;;;;;4991756;28;20054;-55
2022/05/23 05:31:00;;;;;;;7.53;1.30;;;12.30;99.90;;;;;;5011219;28;20050;-55
2022/05/23 05:33:36;;;;;;;6.22;1.48;;;12.30;99.90;;;;;;5002098;28;20046;-55
2022/05/23 05:36:12;;;;;;;4.22;0.95;;;12.30;99.90;;;;;;4992824;28;20053;-55
2022/05/23 05:39:01;;;;;;;5.65;1.63;;;12.40;99.90;;;;;;5034716;28;20052;-55
2022/05/23 05:41:41;;;;;;;4.93;1.15;;;12.50;99.90;;;;;;5014358;28;20057;-55
2022/05/23 05:44:14;;;;;;;5.03;1.15;;;12.50;99.90;;;;;;5030754;28;20041;-55
2022/05/23 05:46:49;;;;;;;3.88;1.08;;;12.50;99.90;;;;;;5030673;28;20496;-55
2022/05/23 05:49:44;;;;;;;9.10;1.17;;;12.60;99.90;;;;;;4997298;28;20406;-55
2022/05/23 05:52:18;;;;;;;8.82;1.30;;;12.60;99.90;;;;;;4991853;28;20052;-56
2022/05/23 05:54:52;;;;;;;7.40;1.65;;;12.60;99.90;;;;;;4992133;28;20379;-56
2022/05/23 05:57:22;;;;;;;7.80;1.10;;;12.70;99.90;;;;;;4991281;28;20493;-55
2022/05/23 05:59:53;;;;;;;8.85;1.40;;;12.70;99.90;;;;;;5007280;28;20655;-55
2022/05/23 06:02:22;;;;;;;3.42;1.02;;;12.80;99.90;;;;;;5007052;28;20050;-56
2022/05/23 06:04:50;;;;;;;6.97;1.20;;;12.80;99.90;;;;;;4989525;28;20050;-56
2022/05/23 06:13:38;;;;;;;9.88;1.25;;;12.90;99.90;;;;;;4994073;28;20042;-55
2022/05/23 06:16:10;;;;;;;8.40;1.17;;;13.00;99.90;;;;;;4971926;28;20039;-56
2022/05/23 06:18:48;;;;;;;6.05;1.00;;;13.00;99.90;;;;;;4995097;28;20053;-55
2022/05/23 06:21:17;;;;;;;12.13;1.35;;;13.10;99.90;;;;;;4990858;28;20050;-55
2022/05/23 06:23:47;;;;;;;8.02;0.82;;;13.10;99.90;;;;;;5038399;28;20049;-55
2022/05/23 06:26:47;;;;;;;10.77;1.50;;;13.00;99.90;;;;;;5007754;28;20394;-55
2022/05/23 06:29:36;;;;;;;4.55;1.38;;;13.00;99.90;;;;;;5003858;28;20062;-55
2022/05/23 06:32:22;;;;;;;8.00;1.10;;;13.00;99.90;;;;;;5011110;28;20053;-57
2022/05/23 06:34:50;;;;;;;5.82;1.10;;;13.00;99.90;;;;;;4993728;28;20065;-56
2022/05/23 06:37:18;;;;;;;11.90;1.88;;;13.00;99.90;;;;;;4992176;28;20042;-56
2022/05/23 06:39:46;;;;;;;6.28;1.08;;;13.10;99.90;;;;;;5009411;28;20050;-55
2022/05/23 06:42:33;;;;;;;7.95;1.52;;;13.10;99.90;;;;;;5010528;28;20048;-55
2022/05/23 06:45:20;;;;;;;7.95;1.20;;;13.10;99.90;;;;;;5010898;28;20053;-56
2022/05/23 06:48:07;;;;;;;4.93;0.80;;;13.10;99.90;;;;;;5009027;28;20064;-56
2022/05/23 06:50:47;;;;;;;9.43;3.03;;;13.10;99.90;;;;;;4975456;28;20042;-55
2022/05/23 06:53:20;;;;;;;8.35;1.40;;;13.10;99.90;;;;;;5001363;28;20482;-54
2022/05/23 06:56:03;;;;;;;5.70;1.00;;;13.10;99.90;;;;;;5009692;28;20042;-55
2022/05/23 06:58:31;;;;;;;7.03;0.95;;;13.10;99.90;;;;;;4993440;28;20045;-55
2022/05/23 07:00:59;;;;;;;4.57;0.88;;;13.10;99.90;;;;;;5008441;28;20045;-55
2022/05/23 07:03:49;;;;;;;5.38;1.10;;;13.20;99.90;;;;;;5000588;28;20062;-56
2022/05/23 07:14:57;;;;;;;10.25;1.35;;;13.50;99.90;;;;;;5009259;28;20045;-56
2022/05/23 07:17:28;;;;;;;2.50;1.17;;;13.60;99.90;;;;;;5008621;28;20045;-56
2022/05/23 07:20:18;;;;;;;5.82;1.10;;;13.80;99.90;;;;;;4993224;28;20075;-56
2022/05/23 07:23:07;;;;;;;9.55;1.15;;;14.00;99.90;;;;;;4997552;28;20050;-56
2022/05/23 07:25:41;;;;;;;5.70;1.30;;;14.00;99.90;;;;;;5023233;28;20046;-56
2022/05/23 07:28:14;;;;;;;5.90;0.98;;;14.10;99.90;;;;;;4984642;28;20211;-56
2022/05/23 07:30:43;;;;;;;7.65;1.40;;;14.10;99.90;;;;;;5008730;28;20517;-55
2022/05/23 07:33:13;;;;;;;3.45;1.23;;;14.20;99.90;;;;;;5019579;28;20042;-56
2022/05/23 07:36:01;;;;;;;9.63;0.88;;;14.20;99.90;;;;;;5007802;28;20054;-56
2022/05/23 07:38:29;;;;;;;2.80;0.90;;;14.20;99.90;;;;;;5020619;28;20052;-59
2022/05/23 07:41:01;;;;;;;6.03;0.90;;;14.10;99.90;;;;;;5025767;28;20504;-56
2022/05/23 07:43:39;;;;;;;8.57;1.20;;;14.00;99.90;;;;;;5011283;28;20038;-56
2022/05/23 07:46:13;;;;;;;6.60;1.33;;;13.90;99.90;;;;;;5008853;28;20050;-56
2022/05/23 07:48:47;;;;;;;6.57;1.00;;;13.90;99.90;;;;;;5000778;28;20073;-56
2022/05/23 07:51:18;;;;;;;2.95;1.13;;;13.80;99.90;;;;;;4999498;28;20042;-56
2022/05/23 08:02:16;;;;;;;10.38;1.45;;;13.80;99.90;;;;;;5012784;28;20042;-56
2022/05/23 08:04:55;;;;;;;7.38;1.10;;;13.90;99.90;;;;;;5004489;28;20529;-56
2022/05/23 08:07:28;;;;;;;7.47;1.42;;;13.90;99.90;;;;;;5014264;28;20061;-56
2022/05/23 08:10:00;;;;;;;7.68;2.42;;;13.90;99.90;;;;;;5001498;28;20061;-56
2022/05/23 08:12:34;;;;;;;9.13;1.55;;;14.00;99.90;;;;;;5019026;28;20055;-57
2022/05/23 08:15:02;;;;;;;9.45;1.20;;;14.10;99.90;;;;;;5032422;28;20058;-56
2022/05/23 08:17:32;;;;;;;5.68;1.35;;;14.20;99.90;;;;;;5020821;28;20045;-56
2022/05/23 08:20:16;;;;;;;7.18;1.08;;;14.40;99.90;;;;;;4999637;28;20077;-57
2022/05/23 08:22:45;;;;;;;10.65;1.20;;;14.50;99.90;;;;;;4998323;28;20045;-56
2022/05/23 08:25:23;;;;;;;5.35;1.15;;;14.70;99.90;;;;;;5009395;28;20073;-56
2022/05/23 08:27:55;;;;;;;6.32;1.27;;;14.80;99.90;;;;;;5012378;28;20046;-57
2022/05/23 08:30:24;;;;;;;7.83;1.47;;;15.00;99.90;;;;;;5012516;28;20042;-56
2022/05/23 08:33:02;;;;;;;4.05;1.10;;;15.20;99.90;;;;;;5012164;28;20042;-55
2022/05/23 08:35:30;;;;;;;4.78;1.10;;;15.30;99.90;;;;;;4982107;28;20042;-56
2022/05/23 08:38:01;;;;;;;11.00;2.08;;;15.50;99.90;;;;;;5011678;28;20049;-55
2022/05/23 08:41:00;;;;;;;5.10;1.10;;;15.60;99.90;;;;;;5032839;28;20076;-56
2022/05/23 08:43:56;;;;;;;8.23;2.33;;;15.80;99.90;;;;;;5015290;28;20050;-56
2022/05/23 08:46:45;;;;;;;8.13;1.20;;;15.90;99.90;;;;;;5002578;28;20053;-56
2022/05/23 08:49:25;;;;;;;4.00;0.80;;;16.00;99.90;;;;;;5027402;28;20059;-56
2022/05/23 08:52:10;;;;;;;7.35;1.95;;;16.20;99.90;;;;;;4992711;28;20038;-59
2022/05/23 08:54:54;;;;;;;9.55;1.25;;;16.40;99.90;;;;;;5024766;28;20050;-56
2022/05/23 08:57:28;;;;;;;6.05;1.02;;;16.50;99.90;;;;;;4996421;28;20052;-56
2022/05/23 09:00:04;;;;;;;5.43;0.85;;;16.50;99.90;;;;;;5010608;28;20050;-56
2022/05/23 09:02:50;;;;;;;4.55;1.00;;;16.50;99.90;;;;;;5041825;28;20523;-56
2022/05/23 09:05:35;;;;;;;7.25;0.85;;;16.50;99.90;;;;;;5040098;28;20489;-55
2022/05/23 09:08:28;;;;;;;5.75;0.88;;;16.50;99.90;;;;;;5010277;28;20038;-56
2022/05/23 09:11:00;;;;;;;7.20;1.33;;;16.50;99.90;;;;;;5011554;28;20615;-56
2022/05/23 09:13:30;;;;;;;1.90;0.60;;;16.60;99.90;;;;;;5011369;28;20038;-56
2022/05/23 09:16:04;;;;;;;5.53;1.05;;;16.60;99.90;;;;;;5011433;28;20409;-55
2022/05/23 09:18:57;;;;;;;4.03;0.85;;;16.60;99.90;;;;;;5024497;28;20045;-56
2022/05/23 09:22:12;;;;;;;8.95;1.17;;;16.60;99.90;;;;;;4989415;28;20544;-56
2022/05/23 09:24:15;;;;;;;3.33;0.82;;;16.80;99.90;;;;;;5011843;28;20053;-55
2022/05/23 09:26:44;;;;;;;5.00;1.20;;;16.90;99.90;;;;;;5010427;28;20544;-56
2022/05/23 09:29:13;;;;;;;9.20;1.75;;;17.00;99.90;;;;;;5021730;28;20041;-56
2022/05/23 09:31:46;;;;;;;6.78;1.40;;;17.10;99.90;;;;;;5003562;28;20053;-56
2022/05/23 09:34:37;;;;;;;5.43;1.40;;;17.20;99.90;;;;;;5011040;28;20057;-57
2022/05/23 09:37:17;;;;;;;5.13;1.08;;;17.30;99.90;;;;;;5011265;28;20069;-55
2022/05/23 09:39:55;;;;;;;5.18;1.23;;;17.40;99.90;;;;;;5011058;28;20055;-57
2022/05/23 09:48:22;;;;;;;5.35;1.00;;;17.20;99.90;;;;;;5022044;28;20044;-56
2022/05/23 09:51:10;;;;;;;1.67;0.60;;;17.30;99.90;;;;;;5019082;28;20068;-56
2022/05/23 09:54:01;;;;;;;6.72;0.88;;;17.30;99.90;;;;;;5024171;28;20072;-56
2022/05/23 09:56:35;;;;;;;4.53;0.77;;;17.40;99.90;;;;;;5007661;28;20050;-56
2022/05/23 09:59:29;;;;;;;7.95;0.90;;;17.50;99.90;;;;;;5027719;28;20056;-55
2022/05/23 10:01:57;;;;;;;4.95;0.80;;;17.70;99.90;;;;;;5026183;28;20077;-57
2022/05/23 10:04:30;;;;;;;4.85;1.10;;;17.80;99.90;;;;;;5012232;28;20050;-56
2022/05/23 10:06:59;;;;;;;5.93;0.90;;;17.90;99.90;;;;;;4992523;28;20058;-56
2022/05/23 10:09:37;;;;;;;6.75;1.23;;;17.90;99.90;;;;;;5008424;28;20049;-56
2022/05/23 10:12:25;;;;;;;4.00;0.90;;;18.10;99.90;;;;;;5012497;28;20042;-56
2022/05/23 10:15:19;;;;;;;5.32;0.70;;;18.20;99.90;;;;;;5031284;28;20049;-55
2022/05/23 10:18:04;;;;;;;4.03;0.75;;;18.30;99.90;;;;;;5030306;28;20045;-58
2022/05/23 10:20:38;;;;;;;5.35;0.70;;;18.40;99.90;;;;;;5002479;28;20043;-58
2022/05/23 10:23:14;;;;;;;5.88;1.23;;;18.60;99.90;;;;;;5014461;28;20049;-58
2022/05/23 10:25:56;;;;;;;1.77;0.77;;;18.70;98.80;;;;;;5031121;28;20477;-58
2022/05/23 10:28:37;;;;;;;3.95;0.63;;;18.70;98.70;;;;;;5011936;28;20041;-59
2022/05/23 10:31:18;;;;;;;8.30;1.27;;;18.60;98.70;;;;;;5007215;28;20413;-58
2022/05/23 10:34:01;;;;;;;4.22;1.05;;;18.50;98.60;;;;;;5007684;28;20048;-58
2022/05/23 10:36:30;;;;;;;5.03;1.33;;;18.50;98.60;;;;;;5009525;28;20049;-58
2022/05/23 10:42:07;;;;;;;;;;;18.60;99.20;;;;;;5010855;28;20042;-58
2022/05/23 10:44:51;;;;;;;5.45;0.70;;;18.70;98.70;;;;;;5008046;28;19937;-58
2022/05/23 10:47:48;;;;;;;6.13;1.10;;;18.80;98.60;;;;;;5009747;28;20046;-58
2022/05/23 10:50:44;;;;;;;2.78;0.60;;;18.90;98.60;;;;;;5007238;28;20056;-58
2022/05/23 10:53:18;;;;;;;5.40;0.65;;;18.90;96.70;;;;;;5000470;28;20042;-58
2022/05/23 10:56:10;;;;;;;7.18;0.63;;;18.80;96.40;;;;;;5010875;28;20057;-58
2022/05/23 10:58:47;;;;;;;4.30;0.80;;;18.60;96.40;;;;;;5010564;28;20042;-58
2022/05/23 11:01:20;;;;;;;2.60;0.60;;;18.40;95.80;;;;;;5008406;28;20065;-57
2022/05/23 11:04:00;;;;;;;3.28;0.63;;;18.20;96.60;;;;;;5024640;28;20048;-58
2022/05/23 11:06:55;;;;;;;9.90;1.13;;;18.00;97.30;;;;;;5007500;28;20406;-58
2022/05/23 11:09:32;;;;;;;3.85;0.80;;;17.90;96.70;;;;;;5007608;28;20050;-57
2022/05/23 11:12:18;;;;;;;6.72;1.00;;;17.70;96.90;;;;;;5010406;28;20379;-58
2022/05/23 11:15:36;;;;;;;4.60;0.90;;;17.50;97.40;;;;;;5010585;28;20048;-56
2022/05/23 11:18:39;;;;;;;4.15;1.70;;;17.40;98.00;;;;;;4990735;28;20060;-57
2022/05/23 11:21:26;;;;;;;9.52;1.05;;;17.30;98.30;;;;;;5030345;28;20064;-57
2022/05/23 11:24:35;;;;;;;6.63;0.93;;;17.10;98.70;;;;;;5003544;28;20042;-56
2022/05/23 11:35:48;;;;;;;5.55;1.17;;;16.30;99.90;;;;;;5010458;28;20046;-56
2022/05/23 11:38:18;;;;;;;4.93;0.80;;;16.40;99.90;;;;;;5008824;28;20045;-56
2022/05/23 11:41:05;;;;;;;5.32;0.88;;;16.50;99.90;;;;;;5008035;28;20050;-56
2022/05/23 11:43:33;;;;;;;6.60;0.90;;;16.70;99.90;;;;;;4984572;28;20061;-56
2022/05/23 11:46:10;;;;;;;4.85;1.08;;;16.80;99.90;;;;;;5008440;28;20046;-56
2022/05/23 11:48:40;;;;;;;6.35;1.02;;;17.00;99.90;;;;;;5009807;28;20050;-56
2022/05/23 11:51:24;;;;;;;4.80;1.10;;;17.10;99.90;;;;;;5008134;28;20390;-56
2022/05/23 11:54:04;;;;;;;4.10;0.90;;;17.30;99.90;;;;;;5002332;28;20482;-56
2022/05/23 11:56:51;;;;;;;;;;;17.50;99.90;;;;;;5003602;28;20521;-56
2022/05/23 11:59:24;;;;;;;5.65;1.20;;;17.70;99.90;;;;;;5007182;28;20392;-56
2022/05/23 12:02:07;;;;;;;18.40;1.30;;;17.90;99.90;;;;;;5010076;28;20042;-57
2022/05/23 12:04:49;;;;;;;3.42;0.73;;;17.90;99.90;;;;;;5008866;28;20053;-56
2022/05/23 12:07:38;;;;;;;11.82;1.38;;;18.00;99.90;;;;;;5009840;28;20057;-56
2022/05/23 12:10:28;;;;;;;7.22;1.10;;;18.00;99.90;;;;;;5008342;28;20050;-56
2022/05/23 12:13:35;;;;;;;3.30;0.60;;;18.00;99.90;;;;;;4998958;28;20045;-57
2022/05/23 12:16:31;;;;;;;10.43;0.88;;;18.00;99.80;;;;;;5010141;28;20049;-57
2022/05/23 12:19:13;;;;;;;11.02;1.27;;;18.00;99.90;;;;;;5009596;28;20060;-56
2022/05/23 12:21:44;;;;;;;9.65;0.90;;;18.00;99.90;;;;;;5007598;28;20041;-56
2022/05/23 12:24:26;;;;;;;5.10;0.88;;;18.00;99.90;;;;;;5026099;28;20042;-56
2022/05/23 12:27:30;;;;;;;22.15;1.70;;;17.90;99.70;;;;;;4990624;28;20058;-56
2022/05/23 12:30:16;;;;;;;5.68;1.30;;;17.80;99.20;;;;;;4988882;28;20065;-56
2022/05/23 12:32:58;;;;;;;6.47;1.75;;;17.70;99.50;;;;;;4994555;28;20042;-56
2022/05/23 12:35:45;;;;;;;11.85;1.98;;;17.60;99.60;;;;;;4992187;28;20057;-56
2022/05/23 12:38:50;;;;;;;7.32;2.03;;;17.40;99.50;;;;;;5008293;28;20034;-56
2022/05/23 12:41:36;;;;;;;10.63;2.58;;;17.30;99.80;;;;;;4985979;28;20050;-56
2022/05/23 12:44:15;;;;;;;8.52;3.25;;;17.10;99.90;;;;;;5008026;28;20057;-57
2022/05/23 12:47:24;;;;;;;7.38;2.88;;;17.00;99.90;;;;;;5012502;28;20046;-57
2022/05/23 12:50:45;;;;;;;6.30;3.15;;;16.80;99.90;;;;;;4995691;28;20046;-56
2022/05/23 12:53:28;;;;;;;8.05;2.92;;;16.70;99.90;;;;;;4989607;28;20065;-57
2022/05/23 12:56:17;;;;;;;6.78;2.38;;;16.70;99.90;;;;;;4973095;28;20375;-57
2022/05/23 12:59:26;;;;;;;6.65;2.38;;;16.60;99.90;;;;;;5030479;28;20481;-57
2022/05/23 13:02:02;;;;;;;7.43;2.72;;;16.30;99.90;;;;;;4987106;28;20045;-57
2022/05/23 13:04:47;;;;;;;5.13;2.20;;;16.00;99.90;;;;;;5010448;28;20046;-55
2022/05/23 13:07:34;;;;;;;7.82;2.97;;;15.80;99.90;;;;;;5011392;28;20058;-56
2022/05/23 13:10:08;;;;;;;6.25;2.42;;;15.50;99.90;;;;;;5012626;28;20548;-56
2022/05/23 13:12:52;;;;;;;6.78;2.38;;;15.20;99.90;;;;;;5011111;28;20061;-55
2022/05/23 13:15:29;;;;;;;5.95;2.50;;;14.90;99.90;;;;;;5044632;28;20049;-55
2022/05/23 13:23:52;;;;;;;8.27;3.28;;;14.30;99.90;;;;;;5021875;28;20485;-54
2022/05/23 13:26:21;;;;;;;6.18;2.15;;;14.20;99.90;;;;;;5031202;28;20060;-56
2022/05/23 13:29:11;;;;;;;3.58;1.65;;;14.10;99.90;;;;;;5007559;28;20046;-55
2022/05/23 13:31:42;;;;;;;4.15;1.50;;;13.90;99.90;;;;;;5011321;28;20042;-56
2022/05/23 13:34:15;;;;;;;2.85;1.60;;;13.80;99.90;;;;;;5015770;28;20046;-55
2022/05/23 13:36:46;;;;;;;2.55;1.33;;;13.70;99.90;;;;;;4994871;28;20049;-57
2022/05/23 13:39:21;;;;;;;3.85;1.52;;;13.70;99.90;;;;;;4995536;28;20048;-57
2022/05/23 13:41:49;;;;;;;2.72;1.15;;;13.60;99.90;;;;;;4993432;28;20057;-56
2022/05/23 13:44:26;;;;;;;3.33;1.30;;;13.60;99.90;;;;;;5004476;28;20049;-57
2022/05/23 13:47:07;;;;;;;4.10;1.00;;;13.50;99.90;;;;;;5012168;28;20049;-57
2022/05/23 13:49:45;;;;;;;4.30;1.38;;;13.60;99.90;;;;;;5012008;28;20057;-56
2022/05/23 13:52:44;;;;;;;1.17;0.98;;;13.50;99.90;;;;;;5011227;28;20046;-57
2022/05/23 13:55:19;;;;;;;2.15;1.33;;;13.40;99.90;;;;;;5010586;28;20512;-56
2022/05/23 13:57:54;;;;;;;3.30;1.73;;;13.40;99.90;;;;;;5006459;28;20061;-56
2022/05/23 14:00:29;;;;;;;2.80;1.50;;;13.40;99.90;;;;;;4994421;28;20041;-57
2022/05/23 14:03:02;;;;;;;3.78;1.95;;;13.40;99.90;;;;;;5011505;28;20521;-55
2022/05/23 14:05:33;;;;;;;2.58;2.17;;;13.40;99.90;;;;;;5011998;28;20058;-55
2022/05/23 14:08:03;;;;;;;7.72;2.20;;;13.40;99.90;;;;;;5009811;28;20412;-57
2022/05/23 14:10:37;;;;;;;5.00;1.90;;;13.30;99.90;;;;;;5008646;28;20053;-55
2022/05/23 14:13:07;;;;;;;2.78;1.77;;;13.40;99.90;;;;;;5001442;28;20061;-56
2022/05/23 14:15:35;;;;;;;5.88;2.33;;;13.40;99.90;;;;;;5011677;28;20482;-56
2022/05/23 14:18:15;;;;;;;4.30;1.65;;;13.40;99.90;;;;;;5010443;28;20041;-55
2022/05/23 14:20:47;;;;;;;3.55;2.75;;;13.50;99.90;;;;;;5011670;28;20046;-55
2022/05/23 14:23:17;;;;;;;6.47;3.30;;;13.60;99.90;;;;;;5011324;28;20037;-55
2022/05/23 14:26:05;;;;;;;3.30;2.35;;;13.60;99.90;;;;;;5011327;28;20525;-55
2022/05/23 14:28:41;;;;;;;5.10;2.72;;;13.70;99.90;;;;;;5007584;28;20046;-59
2022/05/23 14:31:09;;;;;;;6.07;2.28;;;13.80;99.90;;;;;;5011426;28;20053;-56
2022/05/23 14:33:42;;;;;;;2.65;2.03;;;13.90;99.90;;;;;;5011218;28;20504;-56
2022/05/23 14:36:10;;;;;;;9.60;2.75;;;13.90;99.90;;;;;;5011361;28;20053;-56
2022/05/23 14:38:47;;;;;;;6.47;2.50;;;14.00;99.90;;;;;;5011135;28;20060;-56
2022/05/23 14:41:23;;;;;;;5.93;2.50;;;14.00;99.90;;;;;;5011316;28;20544;-56
2022/05/23 14:44:00;;;;;;;6.80;2.42;;;14.10;99.90;;;;;;5003847;28;20069;-55
2022/05/23 14:46:31;;;;;;;6.90;2.58;;;14.10;99.90;;;;;;5011207;28;20042;-56